Terminal Aerodrome Forecast
Issued by NWS Central Illinois

Home | Current Version | Previous Version | Text Only | Print | Product List | Glossary On
Versions: 1 2 3 4 5 6 7 8 9 10 11 12 13 14
000
FTUS43 KILX 291730
TAFPIA
TAF
KPIA 291730Z 2918/3018 21008KT P6SM SCT025 BKN050
      TEMPO 2918/2921 BKN025
     FM292100 19005KT P6SM VCSH OVC035
     FM300800 VRB03KT 3SM BR SCT003 OVC025
      TEMPO 3010/3013 3/4SM BR BKN003
     FM301300 17003KT 4SM BR BKN012=

USA.gov is the U.S. government's official web portal to all federal, state and local government web resources and services.